KLCH/LCH METAR and TAF weather

Enter ICAO airport designator
Station Type Date Time Source
KLCH METAR 2020/04/07 01:53 UTC NOAA

KLCH 070153Z 13006KT 4SM RA BR OVC016 21/21 A3002 RMK AO2 RAB07E31B48 SLP173 P0000 T02110206


Station Type Date Time Source
KLCH Decoded METAR 2020/04/07 01:53 UTC NOAA

LAKE CHARLES REGIONAL AIRPORT , LA, United States (KLCH) 30-12N 093-23W 3M
Apr 06, 2020 - 09:53 PM EDT / 2020.04.07 0153 UTC
Wind: from the SE (130 degrees) at 7 MPH (6 KT):0
Visibility: 4 mile(s):0
Sky conditions: overcast
Weather: rain; mist
Precipitation last hour: A trace
Temperature: 70.0 F (21.1 C)
Dew Point: 69.1 F (20.6 C)
Relative Humidity: 96%
Pressure (altimeter): 30.02 in. Hg (1016 hPa)
ob: KLCH 070153Z 13006KT 4SM RA BR OVC016 21/21 A3002 RMK AO2 RAB07E31B48 SLP173 P0000 T02110206
cycle: 2

Station Type Date Time Source
KLCH TAF 2020/04/06 20:16 UTC NOAA

TAF
AMD KLCH 062014Z 0620/0718 12009KT P6SM VCSH OVC018
TEMPO 0620/0622 6SM -SHRA
FM062300 13006KT P6SM OVC018
FM070500 13005KT 5SM BR SCT003 OVC007
TEMPO 0709/0713 2SM BR OVC003
FM071500 VRB05KT P6SM OVC015

Example: see airport list